Time;durP1;ratioP1;P1;durP2;ratioP2;P2;SDS_P1;SDS_P2;PMS_P1;PMS_P2;Temp;Humidity;BMP_temperature;BMP_pressure;BME280_temperature;BME280_humidity;BME280_pressure;Samples;Min_cycle;Max_cycle;Signal;HPM_P1;HPM_P2
2022/01/25 00:25:45;;;;;;;44.83;27.13;;;2.40;99.90;;;;;;5033728;28;20475;-46
2022/01/25 00:28:26;;;;;;;47.17;27.70;;;2.40;99.90;;;;;;5035975;28;20505;-46
2022/01/25 00:31:09;;;;;;;46.13;27.77;;;2.50;99.90;;;;;;5034738;28;20414;-45
2022/01/25 00:33:36;;;;;;;44.10;26.27;;;2.40;99.90;;;;;;5036558;28;20236;-45
2022/01/25 00:36:05;;;;;;;45.40;28.67;;;2.40;99.90;;;;;;5034878;28;20441;-45
2022/01/25 00:38:31;;;;;;;50.23;29.30;;;2.40;99.90;;;;;;5035938;28;20519;-45
2022/01/25 00:40:57;;;;;;;45.33;28.07;;;2.50;99.90;;;;;;5036155;28;20816;-45
2022/01/25 00:43:23;;;;;;;48.27;28.70;;;2.40;99.90;;;;;;5035924;28;20552;-44
2022/01/25 00:45:52;;;;;;;48.90;28.80;;;2.50;99.90;;;;;;5034390;28;20445;-46
2022/01/25 00:48:19;;;;;;;47.83;29.23;;;2.50;99.90;;;;;;5035927;28;20536;-45
2022/01/25 00:50:48;;;;;;;47.07;29.13;;;2.50;99.90;;;;;;5018083;28;21023;-46
2022/01/25 00:55:57;;;;;;;48.67;28.07;;;2.50;99.90;;;;;;5035992;28;20269;-44
2022/01/25 00:58:23;;;;;;;45.00;27.97;;;2.50;99.90;;;;;;5035828;28;20781;-45
2022/01/25 01:00:49;;;;;;;50.53;29.73;;;2.50;99.90;;;;;;5035367;28;20207;-46
2022/01/25 01:03:15;;;;;;;46.17;28.37;;;2.50;99.90;;;;;;5035345;28;20205;-46
2022/01/25 01:05:41;;;;;;;46.93;28.33;;;2.50;99.90;;;;;;5035559;28;20793;-46
2022/01/25 01:08:07;;;;;;;50.13;29.27;;;2.50;99.90;;;;;;5035296;28;20170;-46
2022/01/25 01:10:33;;;;;;;47.57;28.73;;;2.60;99.90;;;;;;5035217;28;20415;-46
2022/01/25 01:13:30;;;;;;;47.77;29.00;;;2.60;99.90;;;;;;5033956;28;20191;-41
2022/01/25 01:40:09;;;;;;;48.83;29.50;;;2.60;99.90;;;;;;5036326;28;20167;-45
2022/01/25 01:43:01;;;;;;;51.30;29.20;;;2.60;99.90;;;;;;5037478;28;20221;-45
2022/01/25 01:48:40;;;;;;;49.63;28.57;;;2.60;99.90;;;;;;5035255;28;20655;-45
2022/01/25 01:51:14;;;;;;;52.60;29.20;;;2.60;99.90;;;;;;5034486;28;20206;-44
2022/01/25 01:53:40;;;;;;;47.70;28.63;;;2.60;99.90;;;;;;5033198;28;20936;-45
2022/01/25 01:56:06;;;;;;;48.70;30.60;;;2.60;99.90;;;;;;5034582;28;20449;-46
2022/01/25 01:58:35;;;;;;;53.13;30.00;;;2.60;99.90;;;;;;5034856;28;20493;-46
2022/01/25 02:01:01;;;;;;;44.70;29.17;;;2.60;99.90;;;;;;5034451;28;20203;-46
2022/01/25 02:03:26;;;;;;;49.50;28.20;;;2.60;99.90;;;;;;5034247;28;20207;-46
2022/01/25 02:05:52;;;;;;;44.27;27.73;;;2.70;99.90;;;;;;5034089;28;20204;-45
2022/01/25 02:08:18;;;;;;;47.57;28.77;;;2.70;99.90;;;;;;5034278;28;20216;-46
2022/01/25 02:10:43;;;;;;;47.40;28.47;;;2.70;99.90;;;;;;5034335;28;20192;-46
2022/01/25 02:13:11;;;;;;;50.83;28.47;;;2.70;99.90;;;;;;5034356;28;20550;-45
2022/01/25 02:15:38;;;;;;;47.30;29.13;;;2.70;99.90;;;;;;5034010;28;20204;-45
2022/01/25 02:23:36;;;;;;;52.60;29.27;;;2.70;99.90;;;;;;5034176;28;20210;-45
2022/01/25 02:26:04;;;;;;;47.80;29.37;;;2.70;99.90;;;;;;5032510;28;20888;-46
2022/01/25 02:28:33;;;;;;;47.23;28.60;;;2.70;99.90;;;;;;5032662;28;20536;-46
2022/01/25 02:30:59;;;;;;;51.57;29.97;;;2.70;99.90;;;;;;5032492;28;20605;-45
2022/01/25 02:33:26;;;;;;;48.73;29.00;;;2.70;99.90;;;;;;5033855;28;20187;-45
2022/01/25 02:35:52;;;;;;;47.23;28.67;;;2.70;99.90;;;;;;5033955;28;20508;-45
2022/01/25 02:38:23;;;;;;;43.80;26.87;;;2.70;99.90;;;;;;5032628;28;20639;-46
2022/01/25 02:40:49;;;;;;;49.73;27.67;;;2.70;99.90;;;;;;5034113;28;20181;-45
2022/01/25 02:43:17;;;;;;;50.07;28.67;;;2.70;99.90;;;;;;5032860;28;20243;-45
2022/01/25 02:45:46;;;;;;;59.93;29.83;;;2.70;99.90;;;;;;5033543;28;20671;-46
2022/01/25 02:48:30;;;;;;;47.77;26.93;;;2.70;99.90;;;;;;5031584;28;20275;-46
2022/01/25 02:50:59;;;;;;;48.10;27.97;;;2.70;99.90;;;;;;5032191;28;20200;-46
2022/01/25 02:53:25;;;;;;;44.10;27.43;;;2.70;99.90;;;;;;5034005;28;20183;-46
2022/01/25 02:55:51;;;;;;;50.47;28.40;;;2.70;99.90;;;;;;5033474;28;20686;-46
2022/01/25 02:58:16;;;;;;;49.50;28.13;;;2.70;99.90;;;;;;5032143;28;20187;-46
2022/01/25 03:00:42;;;;;;;44.73;27.47;;;2.70;99.90;;;;;;5033887;28;20187;-46
2022/01/25 03:03:08;;;;;;;47.47;28.07;;;2.70;99.90;;;;;;5033530;28;20207;-45
2022/01/25 03:05:33;;;;;;;43.97;26.37;;;2.70;99.90;;;;;;5033257;28;20266;-46
2022/01/25 03:07:59;;;;;;;46.07;29.03;;;2.70;99.90;;;;;;5055684;23;20237;-43
2022/01/25 03:10:35;;;;;;;47.20;27.97;;;2.70;99.90;;;;;;5073226;28;20178;-45
2022/01/25 03:13:00;;;;;;;50.87;27.80;;;2.70;99.90;;;;;;5055309;28;20174;-47
2022/01/25 03:15:42;;;;;;;43.13;27.27;;;2.70;99.90;;;;;;5073134;28;20717;-44
2022/01/25 03:18:23;;;;;;;43.17;27.40;;;2.70;99.90;;;;;;5073494;28;20178;-44
2022/01/25 03:20:52;;;;;;;44.90;26.87;;;2.70;99.90;;;;;;5073406;28;20424;-44
2022/01/25 03:23:19;;;;;;;44.73;25.73;;;2.70;99.90;;;;;;5073299;28;20459;-46
2022/01/25 03:25:47;;;;;;;40.87;26.33;;;2.70;99.90;;;;;;5072973;28;20658;-47
2022/01/25 03:28:17;;;;;;;43.00;26.03;;;2.70;99.90;;;;;;5055116;28;20516;-47
2022/01/25 03:30:44;;;;;;;48.27;29.17;;;2.70;99.90;;;;;;5072974;28;20206;-45
2022/01/25 03:33:10;;;;;;;44.03;27.63;;;2.70;99.90;;;;;;5073257;28;20197;-44
2022/01/25 03:35:36;;;;;;;48.23;28.77;;;2.70;99.90;;;;;;5072933;28;20217;-43
2022/01/25 03:38:02;;;;;;;52.67;29.20;;;2.70;99.90;;;;;;5072951;28;20631;-47
2022/01/25 03:40:28;;;;;;;47.23;29.53;;;2.70;99.90;;;;;;5073195;28;20178;-47
2022/01/25 03:42:55;;;;;;;48.73;29.10;;;2.70;99.90;;;;;;5054963;28;20212;-44
2022/01/25 03:45:28;;;;;;;53.43;29.63;;;2.70;99.90;;;;;;5073110;28;20179;-45
2022/01/25 03:50:47;;;;;;;48.13;27.47;;;2.70;99.90;;;;;;5073567;28;20159;-45
2022/01/25 03:53:13;;;;;;;48.97;28.33;;;2.70;99.90;;;;;;5073035;28;20254;-43
2022/01/25 03:55:40;;;;;;;47.17;28.90;;;2.70;99.90;;;;;;5072850;28;20197;-47
2022/01/25 03:58:06;;;;;;;45.97;28.40;;;2.60;99.90;;;;;;5073066;28;20261;-45
2022/01/25 04:00:34;;;;;;;43.23;28.17;;;2.70;99.90;;;;;;5057987;28;20266;-45
2022/01/25 04:03:07;;;;;;;45.83;28.00;;;2.70;99.90;;;;;;5058765;28;20202;-44
2022/01/25 04:05:53;;;;;;;45.27;26.57;;;2.70;99.90;;;;;;5076881;28;20575;-43
2022/01/25 04:08:19;;;;;;;44.50;28.10;;;2.70;99.90;;;;;;5076706;28;20198;-45
2022/01/25 04:10:46;;;;;;;48.83;29.43;;;2.70;99.90;;;;;;5076606;28;20177;-44
2022/01/25 04:13:12;;;;;;;49.73;29.93;;;2.70;99.90;;;;;;5076664;28;20190;-43
2022/01/25 04:15:46;;;;;;;52.00;31.10;;;2.60;99.90;;;;;;5076555;28;20194;-44
2022/01/25 04:18:23;;;;;;;48.50;29.47;;;2.60;99.90;;;;;;5076637;28;20166;-45
2022/01/25 04:21:26;;;;;;;47.37;29.27;;;2.70;99.90;;;;;;5076680;28;20162;-46
2022/01/25 04:26:36;;;;;;;46.17;27.70;;;2.60;99.90;;;;;;5076411;28;20301;-46
2022/01/25 04:29:01;;;;;;;48.87;28.27;;;2.60;99.90;;;;;;5076231;28;20211;-45
2022/01/25 04:31:27;;;;;;;49.60;28.73;;;2.60;99.90;;;;;;5076617;28;20182;-45
2022/01/25 04:34:13;;;;;;;44.77;27.87;;;2.60;99.90;;;;;;5076203;28;20250;-46
2022/01/25 04:50:10;;;;;;;47.13;28.50;;;2.60;99.90;;;;;;5076127;28;20168;-47
2022/01/25 04:52:47;;;;;;;56.20;28.13;;;2.60;99.90;;;;;;5076050;28;20430;-44
2022/01/25 04:55:22;;;;;;;44.73;27.97;;;2.60;99.90;;;;;;5075879;28;20166;-44
2022/01/25 04:57:55;;;;;;;43.77;25.57;;;2.60;99.90;;;;;;5076044;28;20542;-45
2022/01/25 05:00:22;;;;;;;41.80;23.43;;;2.60;99.90;;;;;;5057654;28;20186;-45
2022/01/25 05:08:06;;;;;;;43.90;23.90;;;2.60;99.90;;;;;;5075645;28;20412;-44
2022/01/25 05:10:37;;;;;;;36.77;22.30;;;2.50;99.90;;;;;;5075255;28;20201;-45
2022/01/25 05:22:03;;;;;;;36.20;21.27;;;2.50;99.90;;;;;;5059436;28;20194;-45
2022/01/25 05:24:29;;;;;;;38.33;21.30;;;2.40;99.90;;;;;;5075039;28;20189;-44
2022/01/25 05:26:54;;;;;;;38.33;22.10;;;2.40;99.90;;;;;;5075133;28;20269;-44
2022/01/25 05:32:42;;;;;;;37.53;20.87;;;2.40;99.90;;;;;;5075408;28;20197;-44
2022/01/25 05:35:08;;;;;;;38.93;20.43;;;2.40;99.90;;;;;;5075035;28;20206;-45
2022/01/25 05:37:40;;;;;;;44.37;22.43;;;2.40;99.90;;;;;;5074958;28;20209;-44
2022/01/25 05:40:13;;;;;;;39.40;21.73;;;2.40;99.90;;;;;;5075116;28;20654;-44
2022/01/25 05:47:37;;;;;;;37.73;21.67;;;2.30;99.90;;;;;;5074942;28;20681;-43
2022/01/25 05:50:04;;;;;;;39.33;21.53;;;2.30;99.90;;;;;;5074651;28;20596;-45
2022/01/25 05:52:29;;;;;;;39.17;20.73;;;2.30;99.90;;;;;;5074882;28;20211;-45
2022/01/25 05:54:56;;;;;;;40.03;20.63;;;2.30;99.90;;;;;;5074587;28;20215;-46
2022/01/25 05:57:22;;;;;;;37.10;21.40;;;2.30;99.90;;;;;;5056677;28;20297;-45
2022/01/25 05:59:48;;;;;;;38.40;21.50;;;2.30;99.90;;;;;;5074408;28;20211;-46
2022/01/25 06:02:18;;;;;;;41.73;19.90;;;2.70;99.90;;;;;;5074206;28;20199;-47
2022/01/25 06:04:45;;;;;;;39.10;21.10;;;2.20;99.90;;;;;;5074962;28;20179;-46
2022/01/25 06:07:10;;;;;;;40.90;19.93;;;2.30;99.90;;;;;;5074338;28;20475;-44
2022/01/25 06:09:36;;;;;;;35.90;20.90;;;2.30;99.90;;;;;;5074148;28;20469;-47
2022/01/25 06:12:02;;;;;;;38.67;21.23;;;2.30;99.90;;;;;;5056364;28;20186;-43
2022/01/25 06:14:27;;;;;;;36.63;19.73;;;2.30;99.90;;;;;;5074264;28;20187;-44
2022/01/25 06:16:53;;;;;;;38.60;20.60;;;2.20;99.90;;;;;;5056289;28;20265;-43
2022/01/25 06:19:18;;;;;;;37.70;20.53;;;2.20;99.90;;;;;;5074836;28;20189;-43
2022/01/25 06:21:44;;;;;;;42.53;21.70;;;2.20;99.90;;;;;;5073993;28;20205;-44
2022/01/25 06:24:09;;;;;;;39.40;21.30;;;2.20;99.90;;;;;;5074401;28;20262;-42
2022/01/25 06:26:35;;;;;;;39.60;20.43;;;2.20;99.90;;;;;;5056142;28;20720;-43
2022/01/25 06:29:01;;;;;;;38.83;21.13;;;2.20;99.90;;;;;;5074249;28;20182;-42
2022/01/25 06:31:28;;;;;;;40.17;22.13;;;2.20;99.90;;;;;;5056176;28;20605;-41
2022/01/25 06:33:53;;;;;;;42.37;20.47;;;2.20;99.90;;;;;;5074401;28;20183;-42
2022/01/25 06:36:19;;;;;;;41.97;21.00;;;2.20;99.90;;;;;;5073736;28;20305;-43
2022/01/25 06:38:51;;;;;;;39.87;21.27;;;2.20;99.90;;;;;;5056169;28;20186;-42
2022/01/25 06:41:18;;;;;;;38.83;20.63;;;2.20;99.90;;;;;;5074268;28;20163;-43
2022/01/25 06:43:44;;;;;;;43.10;21.43;;;2.20;99.90;;;;;;5073904;28;20203;-42
2022/01/25 06:46:10;;;;;;;39.67;20.57;;;2.20;99.90;;;;;;5074061;28;20433;-41
2022/01/25 06:48:36;;;;;;;42.67;21.07;;;2.20;99.90;;;;;;5073830;28;20183;-42
2022/01/25 06:51:02;;;;;;;37.53;20.50;;;2.20;99.90;;;;;;5073796;28;20480;-42
2022/01/25 06:53:28;;;;;;;41.70;21.77;;;2.20;99.90;;;;;;5056058;28;20239;-41
2022/01/25 06:55:54;;;;;;;39.77;20.97;;;2.20;99.90;;;;;;5073866;28;20198;-42
2022/01/25 06:58:20;;;;;;;40.60;22.03;;;2.20;99.90;;;;;;5074726;28;20190;-42
2022/01/25 07:00:46;;;;;;;39.30;22.03;;;2.20;99.90;;;;;;5074266;28;20189;-42
2022/01/25 07:03:12;;;;;;;40.83;22.00;;;2.20;99.90;;;;;;5073704;28;20569;-40
2022/01/25 07:05:38;;;;;;;41.20;22.13;;;2.20;99.90;;;;;;5073654;28;20627;-42
2022/01/25 07:08:04;;;;;;;42.40;21.60;;;2.20;99.90;;;;;;5073809;28;20735;-43
2022/01/25 07:10:30;;;;;;;43.43;21.13;;;2.20;99.90;;;;;;5074623;28;20198;-42
2022/01/25 07:12:56;;;;;;;38.20;20.70;;;2.20;99.90;;;;;;5073578;28;20553;-44
2022/01/25 07:15:22;;;;;;;40.23;20.60;;;2.20;99.90;;;;;;5073706;28;20186;-42
2022/01/25 07:17:47;;;;;;;40.43;21.37;;;2.20;99.90;;;;;;5073417;28;20292;-43
2022/01/25 07:20:13;;;;;;;42.23;21.53;;;2.20;99.90;;;;;;5073882;28;20190;-42
2022/01/25 07:22:40;;;;;;;43.10;21.20;;;2.20;99.90;;;;;;5055532;28;20231;-42
2022/01/25 07:25:08;;;;;;;43.00;21.90;;;2.20;99.90;;;;;;5073645;28;20595;-41
2022/01/25 07:27:34;;;;;;;39.33;21.43;;;2.20;99.90;;;;;;5073349;28;20199;-41
2022/01/25 07:30:00;;;;;;;39.80;21.27;;;2.20;99.90;;;;;;5055531;28;20189;-41
2022/01/25 07:32:25;;;;;;;40.90;21.23;;;2.20;99.90;;;;;;5073598;28;20179;-41
2022/01/25 07:34:51;;;;;;;41.63;20.50;;;2.10;99.90;;;;;;5057443;28;20183;-41
2022/01/25 07:37:17;;;;;;;42.83;21.33;;;2.20;99.90;;;;;;5077136;28;20351;-41
2022/01/25 07:39:44;;;;;;;42.77;22.10;;;2.20;99.90;;;;;;5077380;28;20269;-43
2022/01/25 07:42:11;;;;;;;40.07;22.17;;;2.20;99.90;;;;;;5059207;28;20217;-41
2022/01/25 07:44:38;;;;;;;45.80;21.70;;;2.20;99.90;;;;;;5059011;28;20225;-40
2022/01/25 07:47:05;;;;;;;37.70;20.07;;;2.20;99.90;;;;;;5077159;28;20201;-42
2022/01/25 07:49:31;;;;;;;44.27;21.83;;;2.20;99.90;;;;;;5077092;28;20650;-41
2022/01/25 07:51:57;;;;;;;43.43;21.43;;;2.20;99.90;;;;;;5076934;28;20440;-42
2022/01/25 07:54:23;;;;;;;38.63;21.13;;;2.20;99.90;;;;;;5058941;28;20178;-42
2022/01/25 07:56:49;;;;;;;44.40;22.00;;;2.20;99.90;;;;;;5076796;28;20683;-41
2022/01/25 07:59:15;;;;;;;44.00;22.03;;;2.20;99.90;;;;;;5077130;28;20183;-44
2022/01/25 08:01:42;;;;;;;39.00;21.60;;;2.20;99.90;;;;;;5058762;28;20185;-43
2022/01/25 08:04:09;;;;;;;38.53;20.73;;;2.20;99.90;;;;;;5077071;28;20187;-41
2022/01/25 08:06:36;;;;;;;42.13;21.97;;;2.20;99.90;;;;;;5076867;28;20201;-43
2022/01/25 08:09:02;;;;;;;52.03;23.57;;;2.20;99.90;;;;;;5076707;28;20197;-42
2022/01/25 08:11:28;;;;;;;42.87;21.63;;;2.20;99.90;;;;;;5076767;28;20556;-41
2022/01/25 08:14:01;;;;;;;40.93;21.80;;;2.30;99.90;;;;;;5076723;28;20179;-42
2022/01/25 08:16:26;;;;;;;50.57;22.67;;;2.30;99.90;;;;;;5058789;28;20267;-41
2022/01/25 08:18:52;;;;;;;52.93;23.07;;;2.30;99.90;;;;;;5058557;28;20267;-41
2022/01/25 08:21:18;;;;;;;49.07;21.83;;;2.30;99.90;;;;;;5076392;28;20181;-40
2022/01/25 08:23:44;;;;;;;47.07;23.00;;;2.30;99.90;;;;;;5076524;28;20294;-42
2022/01/25 08:26:09;;;;;;;51.10;21.53;;;2.30;99.90;;;;;;5076212;28;20239;-43
2022/01/25 08:28:35;;;;;;;49.33;23.13;;;2.30;99.90;;;;;;5076206;28;20214;-43
2022/01/25 08:31:01;;;;;;;52.13;22.50;;;2.30;99.90;;;;;;5076308;28;20178;-43
2022/01/25 08:33:26;;;;;;;49.93;22.23;;;2.30;99.90;;;;;;5076434;28;20186;-40
2022/01/25 08:35:52;;;;;;;46.47;21.83;;;2.30;99.90;;;;;;5076156;28;20213;-41
2022/01/25 08:38:18;;;;;;;56.07;22.93;;;2.30;99.90;;;;;;5058128;28;20185;-40
2022/01/25 08:40:43;;;;;;;49.60;23.03;;;2.40;99.90;;;;;;5075960;28;20215;-41
2022/01/25 08:43:09;;;;;;;46.13;21.90;;;2.40;99.90;;;;;;5076058;28;20287;-39
2022/01/25 08:45:34;;;;;;;51.07;21.77;;;2.40;99.90;;;;;;5057495;28;20202;-39
2022/01/25 08:48:00;;;;;;;46.77;22.23;;;2.40;99.90;;;;;;5075833;28;20222;-39
2022/01/25 08:50:26;;;;;;;55.67;23.00;;;2.40;99.90;;;;;;5076456;28;20186;-39
2022/01/25 08:52:51;;;;;;;50.60;22.63;;;2.40;99.90;;;;;;5075782;28;20689;-41
2022/01/25 08:55:17;;;;;;;52.20;23.47;;;2.40;99.90;;;;;;5075927;28;20664;-41
2022/01/25 08:57:42;;;;;;;46.47;21.97;;;2.50;99.90;;;;;;5075751;28;20209;-39
2022/01/25 09:00:11;;;;;;;56.33;22.10;;;2.50;99.90;;;;;;5075786;28;20191;-40
2022/01/25 09:02:37;;;;;;;55.03;23.03;;;2.50;99.90;;;;;;5075768;28;20662;-40
2022/01/25 09:05:04;;;;;;;56.47;23.23;;;2.50;99.90;;;;;;5075634;28;20421;-41
2022/01/25 09:07:30;;;;;;;53.03;23.50;;;2.50;99.90;;;;;;5057378;28;20261;-43
2022/01/25 09:09:55;;;;;;;51.83;23.30;;;2.60;99.90;;;;;;5075398;28;20370;-40
2022/01/25 09:12:21;;;;;;;61.27;23.90;;;2.60;99.90;;;;;;5075543;28;20240;-40
2022/01/25 09:14:47;;;;;;;54.03;23.67;;;2.60;99.90;;;;;;5075290;28;20179;-42
2022/01/25 09:17:13;;;;;;;56.33;23.73;;;2.60;99.90;;;;;;5057321;28;20207;-43
2022/01/25 09:19:39;;;;;;;63.60;24.97;;;2.70;99.90;;;;;;5075688;28;20194;-40
2022/01/25 09:22:06;;;;;;;58.03;24.50;;;2.70;99.90;;;;;;5057152;28;20206;-42
2022/01/25 09:24:32;;;;;;;56.70;23.20;;;2.70;99.90;;;;;;5057385;28;20708;-41
2022/01/25 09:26:58;;;;;;;57.57;23.20;;;2.70;99.90;;;;;;5057209;28;20237;-42
2022/01/25 09:29:23;;;;;;;51.53;24.13;;;2.70;99.90;;;;;;5075067;28;20582;-43
2022/01/25 09:31:49;;;;;;;53.30;24.03;;;2.70;99.90;;;;;;5057221;28;20549;-42
2022/01/25 09:34:19;;;;;;;56.80;24.27;;;2.80;99.90;;;;;;5075284;28;20664;-43
2022/01/25 09:36:45;;;;;;;58.10;23.73;;;2.80;99.90;;;;;;5074675;28;20204;-42
2022/01/25 09:39:10;;;;;;;54.00;25.17;;;2.80;99.90;;;;;;5075339;28;20713;-42
2022/01/25 09:41:36;;;;;;;58.93;23.97;;;2.90;99.90;;;;;;5075028;28;20189;-44
2022/01/25 09:44:02;;;;;;;68.07;24.20;;;2.90;99.90;;;;;;5075034;28;20257;-45
2022/01/25 09:57:02;;;;;;;58.93;25.70;;;3.00;99.90;;;;;;1511005;22;20309;-44
2022/01/25 09:59:30;;;;;;;56.80;24.97;;;3.00;99.90;;;;;;5074083;28;20214;-43
2022/01/25 10:01:56;;;;;;;63.43;26.23;;;3.00;99.90;;;;;;5056963;28;20226;-43
2022/01/25 10:04:39;;;;;;;66.73;27.33;;;3.10;99.90;;;;;;5074461;28;20171;-44
2022/01/25 10:07:05;;;;;;;61.10;27.27;;;3.00;99.90;;;;;;5056173;28;20289;-45
2022/01/25 10:09:38;;;;;;;67.33;27.37;;;3.10;99.90;;;;;;5074365;28;20182;-45
2022/01/25 10:12:20;;;;;;;65.67;26.07;;;3.10;99.90;;;;;;5074760;28;20191;-44
2022/01/25 10:15:01;;;;;;;64.83;26.27;;;3.10;99.90;;;;;;5056481;28;20189;-45
2022/01/25 10:17:32;;;;;;;57.70;24.10;;;3.20;99.90;;;;;;5074008;28;20263;-41
2022/01/25 10:19:57;;;;;;;62.97;27.27;;;3.20;99.90;;;;;;5074162;28;20181;-46
2022/01/25 10:22:23;;;;;;;59.40;26.17;;;3.30;99.90;;;;;;5074163;28;20226;-46
2022/01/25 10:24:49;;;;;;;67.70;26.57;;;3.30;99.90;;;;;;5073952;28;20178;-44
2022/01/25 10:27:15;;;;;;;58.00;26.27;;;3.30;99.90;;;;;;5074328;28;20202;-46
2022/01/25 10:29:41;;;;;;;63.83;26.50;;;3.30;99.90;;;;;;5073844;28;20637;-46
2022/01/25 10:32:09;;;;;;;67.10;26.53;;;3.30;99.90;;;;;;5073706;28;20646;-45
2022/01/25 10:34:40;;;;;;;58.67;26.73;;;3.40;99.90;;;;;;5039545;28;20185;-46
2022/01/25 10:37:11;;;;;;;68.53;27.43;;;3.50;99.90;;;;;;5039143;28;20211;-45
2022/01/25 10:39:41;;;;;;;61.43;26.40;;;3.50;99.90;;;;;;5073796;28;20601;-45
2022/01/25 10:42:09;;;;;;;62.73;28.97;;;3.60;99.90;;;;;;5055754;28;20199;-45
2022/01/25 10:44:59;;;;;;;67.90;27.40;;;3.60;99.90;;;;;;5073653;28;20261;-45
2022/01/25 10:47:44;;;;;;;72.20;28.50;;;3.60;99.90;;;;;;5073870;28;20550;-46
2022/01/25 10:50:19;;;;;;;61.20;26.87;;;3.70;99.90;;;;;;5073831;28;20217;-46
2022/01/25 10:52:46;;;;;;;62.33;27.57;;;3.70;99.90;;;;;;5055684;28;20781;-46
2022/01/25 10:55:13;;;;;;;62.73;27.03;;;3.70;99.90;;;;;;5073917;28;20182;-46
2022/01/25 10:57:39;;;;;;;68.37;29.10;;;3.70;99.90;;;;;;5073347;28;20199;-47
2022/01/25 11:00:09;;;;;;;75.17;26.57;;;3.80;99.90;;;;;;5073559;28;20171;-46
2022/01/25 11:02:36;;;;;;;61.47;26.90;;;3.80;99.90;;;;;;5073663;28;20198;-46
2022/01/25 11:05:07;;;;;;;69.37;29.03;;;3.80;99.90;;;;;;5073466;28;20576;-45
2022/01/25 11:07:41;;;;;;;65.57;26.37;;;3.80;99.90;;;;;;5073400;28;20230;-45
2022/01/25 11:10:12;;;;;;;70.00;28.37;;;3.90;99.90;;;;;;5073128;28;20162;-46
2022/01/25 11:12:46;;;;;;;65.13;27.10;;;3.90;99.90;;;;;;5074083;28;20714;-45
2022/01/25 11:15:12;;;;;;;71.63;26.90;;;3.90;99.90;;;;;;5073807;28;20254;-45
2022/01/25 11:17:40;;;;;;;66.90;29.47;;;3.90;99.90;;;;;;5073432;28;20211;-45
2022/01/25 11:20:07;;;;;;;59.80;25.63;;;4.00;99.90;;;;;;5055335;28;20242;-46
2022/01/25 11:22:32;;;;;;;63.20;25.40;;;4.00;99.90;;;;;;5073482;28;20195;-45
2022/01/25 11:25:06;;;;;;;77.17;28.00;;;4.00;99.90;;;;;;5073447;28;20179;-45
2022/01/25 11:27:32;;;;;;;62.23;27.87;;;3.90;99.90;;;;;;5073346;28;20302;-44
2022/01/25 11:30:11;;;;;;;70.43;28.90;;;4.00;99.90;;;;;;5073162;28;20182;-45
2022/01/25 11:32:42;;;;;;;58.37;25.07;;;4.00;99.90;;;;;;5055148;28;20524;-45
2022/01/25 11:35:11;;;;;;;56.50;26.37;;;4.00;99.90;;;;;;5073580;28;20623;-45
2022/01/25 11:37:38;;;;;;;60.87;26.43;;;4.00;99.90;;;;;;5055618;28;20195;-46
2022/01/25 11:40:25;;;;;;;56.10;25.67;;;4.00;99.90;;;;;;5072946;28;20540;-45
2022/01/25 11:42:54;;;;;;;67.60;27.50;;;4.10;99.90;;;;;;5055005;28;20195;-45
2022/01/25 11:45:25;;;;;;;58.10;27.93;;;4.10;99.90;;;;;;5072887;28;20179;-46
2022/01/25 11:47:53;;;;;;;60.90;27.97;;;4.10;99.90;;;;;;5072910;28;20273;-45
2022/01/25 11:50:24;;;;;;;56.30;24.80;;;4.10;99.90;;;;;;5073160;28;20172;-45
2022/01/25 11:52:52;;;;;;;55.50;25.80;;;4.10;99.90;;;;;;5072979;28;20532;-47
2022/01/25 11:55:24;;;;;;;59.93;27.40;;;4.10;99.90;;;;;;5055008;28;20210;-46
2022/01/25 11:58:03;;;;;;;54.10;26.23;;;4.10;99.90;;;;;;5072835;28;20681;-46
2022/01/25 12:00:37;;;;;;;57.60;26.33;;;4.20;99.90;;;;;;5073010;28;20172;-45
2022/01/25 12:03:28;;;;;;;57.37;27.70;;;4.20;99.90;;;;;;5072759;28;20252;-47
2022/01/25 12:06:03;;;;;;;58.53;26.30;;;4.20;99.90;;;;;;5073090;28;20564;-46
2022/01/25 12:09:15;;;;;;;53.23;26.27;;;4.30;99.90;;;;;;5054897;28;20199;-46
2022/01/25 12:11:59;;;;;;;56.70;26.57;;;4.30;99.90;;;;;;5070369;28;20188;-46
2022/01/25 12:14:27;;;;;;;56.57;27.07;;;4.30;99.90;;;;;;5073054;28;20168;-46
2022/01/25 12:16:58;;;;;;;54.87;27.27;;;4.30;99.90;;;;;;5072706;28;20195;-45
2022/01/25 12:20:04;;;;;;;58.83;27.20;;;4.40;99.90;;;;;;5072963;28;20156;-46
2022/01/25 12:25:30;;;;;;;53.80;26.00;;;4.50;99.90;;;;;;5014516;28;20577;-45
2022/01/25 12:27:59;;;;;;;51.63;25.37;;;4.50;99.90;;;;;;5058977;28;20183;-45
2022/01/25 12:30:25;;;;;;;50.37;24.83;;;4.50;99.90;;;;;;5076219;28;20174;-43
2022/01/25 12:33:02;;;;;;;57.63;26.43;;;4.50;99.90;;;;;;5075932;28;20184;-44
2022/01/25 12:35:50;;;;;;;52.93;26.97;;;4.50;99.90;;;;;;5058700;28;20183;-45
2022/01/25 12:38:39;;;;;;;48.97;25.43;;;4.50;99.90;;;;;;5058059;28;20168;-46
2022/01/25 12:41:08;;;;;;;51.23;25.27;;;4.50;99.90;;;;;;5075926;28;20317;-44
2022/01/25 12:43:38;;;;;;;58.27;27.77;;;4.50;99.90;;;;;;5075723;28;20207;-46
2022/01/25 12:46:10;;;;;;;61.13;28.83;;;4.50;99.90;;;;;;5075722;28;20194;-46
2022/01/25 12:48:54;;;;;;;60.43;29.40;;;4.60;99.90;;;;;;5076017;28;20214;-46
2022/01/25 12:51:34;;;;;;;53.90;26.63;;;4.60;99.90;;;;;;5075952;28;20156;-46
2022/01/25 12:54:03;;;;;;;52.93;25.53;;;4.60;99.90;;;;;;5057832;28;20168;-46
2022/01/25 12:56:34;;;;;;;56.97;26.53;;;4.60;99.90;;;;;;5075628;28;20208;-44
2022/01/25 12:59:03;;;;;;;51.23;26.20;;;4.60;99.90;;;;;;5057624;28;20241;-46
2022/01/25 13:01:29;;;;;;;52.23;28.17;;;4.60;99.90;;;;;;5057594;28;20171;-45
2022/01/25 13:04:03;;;;;;;61.43;28.50;;;4.70;99.90;;;;;;5057354;28;20225;-45
2022/01/25 13:06:35;;;;;;;61.63;29.00;;;4.70;99.90;;;;;;5057401;28;20195;-45
2022/01/25 13:09:16;;;;;;;52.17;25.87;;;4.70;99.90;;;;;;5057505;28;20221;-46
2022/01/25 13:12:10;;;;;;;51.70;26.03;;;4.70;99.90;;;;;;5075292;28;20160;-45
2022/01/25 13:17:06;;;;;;;52.30;28.07;;;4.70;99.90;;;;;;5075236;28;20262;-46
2022/01/25 13:19:59;;;;;;;57.87;28.47;;;4.70;99.90;;;;;;5075440;28;20172;-46
2022/01/25 13:22:38;;;;;;;48.20;26.17;;;4.70;99.90;;;;;;5057012;28;20289;-46
2022/01/25 13:27:49;;;;;;;46.43;25.53;;;4.70;99.90;;;;;;5075305;28;20163;-45
2022/01/25 13:33:03;;;;;;;51.27;26.57;;;4.60;99.90;;;;;;5063908;28;20202;-46
2022/01/25 13:35:33;;;;;;;51.47;25.80;;;4.70;99.90;;;;;;5075316;28;20180;-45
2022/01/25 13:38:37;;;;;;;52.40;26.17;;;4.60;99.90;;;;;;5075105;28;20172;-46
2022/01/25 13:46:23;;;;;;;50.90;25.10;;;4.60;99.90;;;;;;5074935;28;20191;-46
2022/01/25 13:48:56;;;;;;;50.43;26.33;;;4.70;99.90;;;;;;5074872;28;20199;-47
2022/01/25 13:51:24;;;;;;;55.90;26.13;;;4.60;99.90;;;;;;5075109;28;20191;-47
2022/01/25 13:53:59;;;;;;;53.83;26.23;;;4.60;99.90;;;;;;5074516;28;20180;-47
2022/01/25 13:56:28;;;;;;;46.87;25.30;;;4.60;99.90;;;;;;5074314;28;20674;-46
2022/01/25 13:58:54;;;;;;;53.27;28.40;;;4.60;99.90;;;;;;5074849;28;20168;-45
2022/01/25 14:01:22;;;;;;;53.73;27.47;;;4.60;99.90;;;;;;5075391;28;20192;-46
2022/01/25 14:03:57;;;;;;;56.57;26.37;;;4.60;99.90;;;;;;5074255;28;20199;-47
2022/01/25 14:10:29;;;;;;;50.23;26.67;;;4.50;99.90;;;;;;5074505;28;20178;-47
2022/01/25 14:24:04;;;;;;;55.73;28.67;;;4.40;99.90;;;;;;5074251;28;20198;-45
2022/01/25 14:26:30;;;;;;;47.83;24.87;;;4.40;99.90;;;;;;5073834;28;20214;-46
2022/01/25 14:29:07;;;;;;;49.00;26.60;;;4.40;99.90;;;;;;5055930;28;20175;-46
2022/01/25 14:31:42;;;;;;;51.80;26.23;;;4.40;99.90;;;;;;5073905;28;20163;-47
2022/01/25 14:34:13;;;;;;;51.70;25.30;;;4.50;99.90;;;;;;5074173;28;20163;-46
2022/01/25 14:36:42;;;;;;;50.03;25.60;;;4.50;99.90;;;;;;5055704;28;20231;-46
2022/01/25 14:39:09;;;;;;;50.00;27.33;;;4.50;99.90;;;;;;5073981;28;20589;-46
2022/01/25 14:41:37;;;;;;;50.53;26.47;;;4.50;99.90;;;;;;5074128;28;20175;-47
2022/01/25 14:44:09;;;;;;;49.27;26.53;;;4.50;99.90;;;;;;5072911;28;20199;-46
2022/01/25 14:46:41;;;;;;;50.60;26.80;;;4.50;99.90;;;;;;5056156;28;20744;-45
2022/01/25 14:49:15;;;;;;;51.67;25.50;;;4.50;99.90;;;;;;5074193;28;20263;-45
2022/01/25 14:52:04;;;;;;;47.87;25.27;;;4.50;99.90;;;;;;5076364;28;20159;-45
2022/01/25 14:54:34;;;;;;;50.53;25.37;;;4.40;99.90;;;;;;5073818;28;20253;-45
2022/01/25 14:57:05;;;;;;;42.27;24.73;;;4.40;99.90;;;;;;5055350;28;20222;-45
2022/01/25 14:59:46;;;;;;;45.90;24.03;;;4.40;99.90;;;;;;5073692;28;20247;-45
2022/01/25 15:02:14;;;;;;;47.03;25.37;;;4.40;99.90;;;;;;5073363;28;20202;-45
2022/01/25 15:04:48;;;;;;;46.67;23.97;;;4.40;99.90;;;;;;5073559;28;20542;-45
2022/01/25 15:07:23;;;;;;;44.50;24.67;;;4.40;99.90;;;;;;5073349;28;20690;-45
2022/01/25 15:09:56;;;;;;;49.27;25.37;;;4.40;99.90;;;;;;5073315;28;20619;-45
2022/01/25 15:12:26;;;;;;;48.43;23.80;;;4.40;99.90;;;;;;5039659;28;20178;-45